createdAt,value
2023-05-19T00:00:48.566Z,11.64
2023-05-19T00:04:01.861Z,11.53
2023-05-19T00:07:04.002Z,11.50
2023-05-19T00:10:06.417Z,11.53
2023-05-19T00:13:08.417Z,11.53
2023-05-19T00:16:10.682Z,11.60
2023-05-19T00:19:12.273Z,11.53
2023-05-19T00:22:14.860Z,11.46
2023-05-19T00:25:16.437Z,11.47
2023-05-19T00:28:17.939Z,11.49
2023-05-19T00:31:19.608Z,11.51
2023-05-19T00:34:21.157Z,11.45
2023-05-19T00:37:23.408Z,11.46
2023-05-19T00:40:25.703Z,11.48
2023-05-19T00:43:27.638Z,11.40
2023-05-19T00:46:30.300Z,11.38
2023-05-19T00:49:32.111Z,11.44
2023-05-19T00:52:33.755Z,11.51
2023-05-19T00:55:37.502Z,11.44
2023-05-19T00:58:39.224Z,11.31
2023-05-19T01:01:41.186Z,11.38
2023-05-19T01:04:44.709Z,11.33
2023-05-19T01:07:47.178Z,11.33
2023-05-19T01:10:48.726Z,11.38
2023-05-19T01:13:50.528Z,11.43
2023-05-19T01:17:23.112Z,11.52
2023-05-19T01:20:35.982Z,11.49
2023-05-19T01:23:49.398Z,11.25
2023-05-19T01:27:35.574Z,11.22
2023-05-19T01:30:40.376Z,11.30
2023-05-19T01:33:43.847Z,11.14
2023-05-19T01:36:49.749Z,11.16
2023-05-19T01:39:52.047Z,11.05
2023-05-19T01:42:57.516Z,11.07
2023-05-19T01:46:05.586Z,10.98
2023-05-19T01:49:08.043Z,10.84
2023-05-19T01:52:09.544Z,10.81
2023-05-19T01:55:11.402Z,10.89
2023-05-19T01:58:31.833Z,10.86
2023-05-19T02:01:53.015Z,10.92
2023-05-19T02:05:03.031Z,10.89
2023-05-19T02:08:08.869Z,11.01
2023-05-19T02:11:25.714Z,10.93
2023-05-19T02:14:35.677Z,11.01
2023-05-19T02:17:41.563Z,10.84
2023-05-19T02:20:44.565Z,10.80
2023-05-19T02:23:46.817Z,10.80
2023-05-19T02:26:49.718Z,10.87
2023-05-19T02:29:51.389Z,10.92
2023-05-19T02:32:54.347Z,10.88
2023-05-19T02:35:57.219Z,11.00
2023-05-19T02:39:00.890Z,10.87
2023-05-19T02:42:02.329Z,10.92
2023-05-19T02:45:04.285Z,10.85
2023-05-19T02:48:05.916Z,10.59
2023-05-19T02:51:07.576Z,10.67
2023-05-19T02:54:09.099Z,10.57
2023-05-19T02:57:11.174Z,10.53
2023-05-19T03:00:13.265Z,10.58
2023-05-19T03:03:15.331Z,10.56
2023-05-19T03:06:17.994Z,10.51
2023-05-19T03:09:20.178Z,10.51
2023-05-19T03:12:21.780Z,10.55
2023-05-19T03:15:23.403Z,10.47
2023-05-19T03:18:26.264Z,10.46
2023-05-19T03:21:27.857Z,10.49
2023-05-19T03:24:29.356Z,10.49
2023-05-19T03:27:31.336Z,10.56
2023-05-19T03:30:33.021Z,10.47
2023-05-19T03:33:43.455Z,10.60
2023-05-19T03:36:50.192Z,10.68
2023-05-19T03:39:51.852Z,10.58
2023-05-19T03:42:54.342Z,10.65
2023-05-19T03:45:56.740Z,10.53
2023-05-19T03:49:21.268Z,10.45
2023-05-19T03:52:46.589Z,10.50
2023-05-19T03:56:01.834Z,10.33
2023-05-19T03:59:06.041Z,10.29
2023-05-19T04:02:08.357Z,10.34
2023-05-19T04:05:10.720Z,10.19
2023-05-19T04:08:12.307Z,10.13
2023-05-19T04:11:16.745Z,10.61
2023-05-19T04:14:19.526Z,10.56
2023-05-19T04:17:21.927Z,10.37
2023-05-19T04:20:23.414Z,10.22
2023-05-19T04:23:25.646Z,10.23
2023-05-19T04:26:30.801Z,10.26
2023-05-19T04:29:32.606Z,10.23
2023-05-19T04:32:34.179Z,10.37
2023-05-19T04:35:38.033Z,10.33
2023-05-19T04:38:39.933Z,10.37
2023-05-19T04:41:44.738Z,10.27
2023-05-19T04:44:49.141Z,10.30
2023-05-19T04:47:52.596Z,10.38
2023-05-19T04:50:54.443Z,10.30
2023-05-19T04:53:56.287Z,10.11
2023-05-19T04:56:57.857Z,10.22
2023-05-19T05:00:08.289Z,10.54
2023-05-19T05:03:22.782Z,10.58
2023-05-19T05:06:24.818Z,10.55
2023-05-19T05:09:26.470Z,10.44
2023-05-19T05:12:29.462Z,10.41
2023-05-19T05:15:31.630Z,10.29
2023-05-19T05:18:38.665Z,10.27
2023-05-19T05:21:41.450Z,10.32
2023-05-19T05:24:44.256Z,10.25
2023-05-19T05:27:46.009Z,10.29
2023-05-19T05:30:49.147Z,10.36
2023-05-19T05:33:50.915Z,10.34
2023-05-19T05:36:56.353Z,10.35
2023-05-19T05:39:57.842Z,10.41
2023-05-19T05:43:02.405Z,10.39
2023-05-19T05:46:07.390Z,10.38
2023-05-19T05:49:09.203Z,10.38
2023-05-19T05:52:12.512Z,10.73
2023-05-19T05:55:19.604Z,10.80
2023-05-19T05:58:22.304Z,10.87
2023-05-19T06:01:24.015Z,10.99
2023-05-19T06:04:26.324Z,11.25
2023-05-19T06:07:29.153Z,11.38
2023-05-19T06:10:31.044Z,11.31
2023-05-19T06:13:36.681Z,11.25
2023-05-19T06:16:41.196Z,11.46
2023-05-19T06:19:43.271Z,11.51
2023-05-19T06:22:44.831Z,11.42
2023-05-19T06:25:46.840Z,11.67
2023-05-19T06:28:49.114Z,11.72
2023-05-19T06:31:51.353Z,11.94
2023-05-19T06:34:56.465Z,11.78
2023-05-19T06:37:58.043Z,11.66
2023-05-19T06:40:59.766Z,11.90
2023-05-19T06:44:03.609Z,11.98
2023-05-19T06:47:07.941Z,12.17
2023-05-19T06:50:10.177Z,12.16
2023-05-19T06:53:14.339Z,12.44
2023-05-19T06:56:16.276Z,12.34
2023-05-19T06:59:21.669Z,12.14
2023-05-19T07:02:23.368Z,12.37
2023-05-19T07:05:24.873Z,12.62
2023-05-19T07:08:30.803Z,12.45
2023-05-19T07:11:35.146Z,12.15
2023-05-19T07:14:38.925Z,12.08
2023-05-19T07:17:41.256Z,12.31
2023-05-19T07:20:43.382Z,12.31
2023-05-19T07:23:45.105Z,12.44
2023-05-19T07:26:46.783Z,12.47
2023-05-19T07:29:48.361Z,12.53
2023-05-19T07:32:50.047Z,12.76
2023-05-19T07:35:51.817Z,12.86
2023-05-19T07:38:53.517Z,12.56
2023-05-19T07:41:56.794Z,12.57
2023-05-19T07:44:59.451Z,12.42
2023-05-19T07:48:01.272Z,12.45
2023-05-19T07:51:03.103Z,12.51
2023-05-19T07:54:04.685Z,12.55
2023-05-19T07:57:06.445Z,12.32
2023-05-19T08:00:10.053Z,12.53
2023-05-19T08:03:13.708Z,12.74
2023-05-19T08:06:15.494Z,12.63
2023-05-19T08:09:16.990Z,12.50
2023-05-19T08:12:18.518Z,12.59
2023-05-19T08:15:20.699Z,12.89
2023-05-19T08:18:31.409Z,12.70
2023-05-19T08:21:34.604Z,12.70
2023-05-19T08:24:36.560Z,12.87
2023-05-19T08:27:38.039Z,12.71
2023-05-19T08:30:39.837Z,12.80
2023-05-19T08:33:41.411Z,12.77
2023-05-19T08:36:45.203Z,12.72
2023-05-19T08:39:47.530Z,12.75
2023-05-19T08:42:49.284Z,12.80
2023-05-19T08:45:54.042Z,12.66
2023-05-19T08:49:07.272Z,12.90
2023-05-19T08:52:19.928Z,12.83
2023-05-19T08:55:27.658Z,12.89
2023-05-19T08:58:30.882Z,13.08
2023-05-19T09:01:32.875Z,13.00
2023-05-19T09:04:34.951Z,12.88
2023-05-19T09:07:37.842Z,13.21
2023-05-19T09:10:39.402Z,12.84
2023-05-19T09:13:40.981Z,13.06
2023-05-19T09:16:48.122Z,13.02
2023-05-19T09:19:50.104Z,13.28
2023-05-19T09:22:52.627Z,13.29
2023-05-19T09:25:54.464Z,13.47
2023-05-19T09:28:58.176Z,13.38
2023-05-19T09:32:05.176Z,13.03
2023-05-19T09:35:07.384Z,12.86
2023-05-19T09:38:10.975Z,12.79
2023-05-19T09:41:14.608Z,13.03
2023-05-19T09:44:30.218Z,13.11
2023-05-19T09:47:42.022Z,12.94
2023-05-19T09:50:45.610Z,12.90
2023-05-19T09:53:47.922Z,12.93
2023-05-19T09:57:00.162Z,13.13
2023-05-19T10:00:14.680Z,12.95
2023-05-19T10:03:18.555Z,12.85
2023-05-19T10:06:22.239Z,12.92
2023-05-19T10:09:25.589Z,12.90
2023-05-19T10:12:28.140Z,13.00
2023-05-19T10:15:30.562Z,12.87
2023-05-19T10:18:33.644Z,12.95
2023-05-19T10:21:35.180Z,13.08
2023-05-19T10:24:36.679Z,13.16
2023-05-19T10:27:44.667Z,13.15
2023-05-19T10:30:50.917Z,13.07
2023-05-19T10:34:07.977Z,13.01
2023-05-19T10:37:24.936Z,12.96
2023-05-19T10:40:55.442Z,13.17
2023-05-19T10:44:19.499Z,13.20
2023-05-19T10:47:25.396Z,13.21
2023-05-19T10:50:27.056Z,13.18
2023-05-19T10:53:33.184Z,13.13
2023-05-19T10:56:36.241Z,13.39
2023-05-19T10:59:39.230Z,13.52
2023-05-19T11:02:43.747Z,13.41
2023-05-19T11:05:46.385Z,13.36
2023-05-19T11:08:53.611Z,13.43
2023-05-19T11:11:55.394Z,13.48
2023-05-19T11:14:57.988Z,13.18
2023-05-19T11:18:01.886Z,13.21
2023-05-19T11:21:03.684Z,13.19
2023-05-19T11:24:11.357Z,13.46
2023-05-19T11:27:33.739Z,13.47
2023-05-19T11:30:35.741Z,13.45
2023-05-19T11:33:37.838Z,13.57
2023-05-19T11:36:39.987Z,13.69
2023-05-19T11:39:45.104Z,13.64
2023-05-19T11:42:46.910Z,13.80
2023-05-19T11:45:48.453Z,13.55
2023-05-19T11:48:50.479Z,13.83
2023-05-19T11:51:52.127Z,13.91
2023-05-19T11:54:53.658Z,13.59
2023-05-19T11:58:02.903Z,13.72
2023-05-19T12:01:06.680Z,13.63
2023-05-19T12:04:10.120Z,13.33
2023-05-19T12:07:14.564Z,13.43
2023-05-19T12:10:16.526Z,13.69
2023-05-19T12:13:19.749Z,13.64
2023-05-19T12:16:21.324Z,13.73
2023-05-19T12:19:25.781Z,13.66
2023-05-19T12:22:27.676Z,13.70
2023-05-19T12:25:31.240Z,13.87
2023-05-19T12:28:33.402Z,14.04
2023-05-19T12:31:35.925Z,14.22
2023-05-19T12:34:38.868Z,13.81
2023-05-19T12:37:43.761Z,13.96
2023-05-19T12:40:45.614Z,13.87
2023-05-19T12:43:48.671Z,13.87
2023-05-19T12:46:52.935Z,14.09
2023-05-19T12:50:04.968Z,14.08
2023-05-19T12:53:12.129Z,13.90
2023-05-19T12:56:15.290Z,13.69
2023-05-19T12:59:30.928Z,13.65
2023-05-19T13:03:08.167Z,13.62
2023-05-19T13:06:10.904Z,13.58
2023-05-19T13:09:12.903Z,13.66
2023-05-19T13:12:15.057Z,13.66
2023-05-19T13:15:16.627Z,13.76
2023-05-19T13:18:18.246Z,13.88
2023-05-19T13:21:19.712Z,13.92
2023-05-19T13:24:24.307Z,13.91
2023-05-19T13:27:26.248Z,13.83
2023-05-19T13:30:28.436Z,14.08
2023-05-19T13:33:30.434Z,13.72
2023-05-19T13:36:33.349Z,13.75
2023-05-19T13:39:35.511Z,13.71
2023-05-19T13:42:38.214Z,13.99
2023-05-19T13:45:41.097Z,14.08
2023-05-19T13:48:42.628Z,14.30
2023-05-19T13:51:44.599Z,14.29
2023-05-19T13:54:46.251Z,14.27
2023-05-19T13:57:47.862Z,14.10
2023-05-19T14:00:57.255Z,13.90
2023-05-19T14:03:59.709Z,13.89
2023-05-19T14:07:03.696Z,14.05
2023-05-19T14:10:06.830Z,14.30
2023-05-19T14:16:14.807Z,14.12
2023-05-19T14:19:16.446Z,14.35
2023-05-19T14:22:18.263Z,14.12
2023-05-19T14:25:19.709Z,14.24
2023-05-19T14:28:21.629Z,14.36
2023-05-19T14:31:23.898Z,14.03
2023-05-19T14:34:25.907Z,13.97
2023-05-19T14:37:28.892Z,13.96
2023-05-19T14:40:30.754Z,13.95
2023-05-19T14:43:33.233Z,14.03
2023-05-19T14:46:34.955Z,14.23
2023-05-19T14:49:36.566Z,14.25
2023-05-19T14:52:38.364Z,13.95
2023-05-19T14:55:40.035Z,13.99
2023-05-19T14:58:41.844Z,14.06
2023-05-19T15:01:43.453Z,14.04
2023-05-19T15:04:45.080Z,14.06
2023-05-19T15:07:46.574Z,14.17
2023-05-19T15:10:49.049Z,14.24
2023-05-19T15:13:50.610Z,14.19
2023-05-19T15:16:52.120Z,13.90
2023-05-19T15:19:56.435Z,13.91
2023-05-19T15:22:57.885Z,14.00
2023-05-19T15:25:59.406Z,14.00
2023-05-19T15:29:00.869Z,13.83
2023-05-19T15:32:02.825Z,13.92
2023-05-19T15:35:04.816Z,13.97
2023-05-19T15:38:06.426Z,14.08
2023-05-19T15:41:08.704Z,14.10
2023-05-19T15:44:10.612Z,14.13
2023-05-19T15:47:12.421Z,14.17
2023-05-19T15:50:14.944Z,13.95
2023-05-19T15:53:20.126Z,13.85
2023-05-19T15:56:22.378Z,14.04
2023-05-19T15:59:26.749Z,14.02
2023-05-19T16:02:28.419Z,14.07
2023-05-19T16:05:29.911Z,14.24
2023-05-19T16:08:31.479Z,14.04
2023-05-19T16:11:33.029Z,14.23
2023-05-19T16:14:36.476Z,14.34
2023-05-19T16:17:38.146Z,14.38
2023-05-19T16:20:39.620Z,14.54
2023-05-19T16:23:41.095Z,14.44
2023-05-19T16:26:42.676Z,14.39
2023-05-19T16:29:44.322Z,14.49
2023-05-19T16:32:46.078Z,14.59
2023-05-19T16:35:47.734Z,14.50
2023-05-19T16:38:49.308Z,14.68
2023-05-19T16:41:51.115Z,14.53
2023-05-19T16:44:52.885Z,14.42
2023-05-19T16:47:54.527Z,14.43
2023-05-19T16:50:56.080Z,14.51
2023-05-19T16:53:57.522Z,14.58
2023-05-19T16:56:59.330Z,14.48
2023-05-19T17:00:00.880Z,14.59
2023-05-19T17:03:03.620Z,14.75
2023-05-19T17:06:05.251Z,14.67
2023-05-19T17:09:06.822Z,14.79
2023-05-19T17:12:09.051Z,14.68
2023-05-19T17:15:10.991Z,14.42
2023-05-19T17:18:12.783Z,14.39
2023-05-19T17:21:14.435Z,14.35
2023-05-19T17:24:16.240Z,14.36
2023-05-19T17:27:17.754Z,14.35
2023-05-19T17:30:20.835Z,14.29
2023-05-19T17:33:22.435Z,14.19
2023-05-19T17:36:24.489Z,14.28
2023-05-19T17:39:25.959Z,14.18
2023-05-19T17:42:28.979Z,14.03
2023-05-19T17:45:30.758Z,14.00
2023-05-19T17:48:32.827Z,14.07
2023-05-19T17:51:34.564Z,13.99
2023-05-19T17:54:36.340Z,13.76
2023-05-19T17:57:40.086Z,13.77
2023-05-19T18:00:41.968Z,13.75
2023-05-19T18:03:49.056Z,13.76
2023-05-19T18:06:52.046Z,13.62
2023-05-19T18:09:55.677Z,13.61
2023-05-19T18:12:57.248Z,13.54
2023-05-19T18:15:59.658Z,13.50
2023-05-19T18:19:01.267Z,13.42
2023-05-19T18:22:02.987Z,13.38
2023-05-19T18:25:04.933Z,13.32
2023-05-19T18:28:06.644Z,13.26
2023-05-19T18:31:17.327Z,13.30
2023-05-19T18:34:19.470Z,13.06
2023-05-19T18:37:21.022Z,12.93
2023-05-19T18:40:22.550Z,12.89
2023-05-19T18:43:24.100Z,12.87
2023-05-19T18:46:25.808Z,12.79
2023-05-19T18:49:27.515Z,12.77
2023-05-19T18:52:30.747Z,12.75
2023-05-19T18:55:32.280Z,12.81
2023-05-19T18:58:33.942Z,12.77
2023-05-19T19:01:35.733Z,12.65
2023-05-19T19:04:37.290Z,12.42
2023-05-19T19:07:45.537Z,12.32
2023-05-19T19:10:50.328Z,12.32
2023-05-19T19:13:54.426Z,12.35
2023-05-19T19:16:56.476Z,12.09
2023-05-19T19:19:58.289Z,11.90
2023-05-19T19:23:01.790Z,11.97
2023-05-19T19:26:03.482Z,11.94
2023-05-19T19:29:04.971Z,11.95
2023-05-19T19:32:06.847Z,11.63
2023-05-19T19:35:08.899Z,11.39
2023-05-19T19:38:10.633Z,11.53
2023-05-19T19:41:12.110Z,11.78
2023-05-19T19:44:13.700Z,11.75
2023-05-19T19:47:15.258Z,11.56
2023-05-19T19:50:18.782Z,11.84
2023-05-19T19:53:20.584Z,11.70
2023-05-19T19:56:24.516Z,11.58
2023-05-19T19:59:26.900Z,11.73
2023-05-19T20:02:28.632Z,11.72
2023-05-19T20:05:30.218Z,11.66
2023-05-19T20:08:31.688Z,11.67
2023-05-19T20:11:33.183Z,11.77
2023-05-19T20:14:34.677Z,11.84
2023-05-19T20:17:36.469Z,11.82
2023-05-19T20:20:41.382Z,11.74
2023-05-19T20:23:43.036Z,11.78
2023-05-19T20:26:44.997Z,11.69
2023-05-19T20:29:47.026Z,11.64
2023-05-19T20:32:48.697Z,11.61
2023-05-19T20:35:50.244Z,11.68
2023-05-19T20:38:51.797Z,11.72
2023-05-19T20:41:53.282Z,11.81
2023-05-19T20:44:54.787Z,11.82
2023-05-19T20:47:56.651Z,11.85
2023-05-19T20:50:58.269Z,11.86
2023-05-19T20:54:00.075Z,11.87
2023-05-19T20:57:06.243Z,11.88
2023-05-19T21:00:08.335Z,12.00
2023-05-19T21:03:09.859Z,12.06
2023-05-19T21:06:11.660Z,11.94
2023-05-19T21:09:14.935Z,11.61
2023-05-19T21:12:16.465Z,11.57
2023-05-19T21:15:21.331Z,11.45
2023-05-19T21:18:22.911Z,11.49
2023-05-19T21:21:24.403Z,11.70
2023-05-19T21:24:26.507Z,11.63
2023-05-19T21:27:28.160Z,11.37
2023-05-19T21:30:29.660Z,11.11
2023-05-19T21:33:31.348Z,10.98
2023-05-19T21:36:33.485Z,11.22
2023-05-19T21:39:35.016Z,11.36
2023-05-19T21:42:36.482Z,11.65
2023-05-19T21:45:37.934Z,11.71
2023-05-19T21:48:39.505Z,11.55
2023-05-19T21:51:41.005Z,11.42
2023-05-19T21:54:42.530Z,11.37
2023-05-19T21:57:43.983Z,11.47
2023-05-19T22:00:53.223Z,11.51
2023-05-19T22:03:54.928Z,11.48
2023-05-19T22:06:56.462Z,11.43
2023-05-19T22:09:58.064Z,11.50
2023-05-19T22:12:59.563Z,11.55
2023-05-19T22:16:01.305Z,11.60
2023-05-19T22:19:03.011Z,11.20
2023-05-19T22:22:13.301Z,10.81
2023-05-19T22:25:15.786Z,11.03
2023-05-19T22:28:17.368Z,10.94
2023-05-19T22:31:18.966Z,11.08
2023-05-19T22:34:20.571Z,11.06
2023-05-19T22:37:23.712Z,11.16
2023-05-19T22:40:25.496Z,11.13
2023-05-19T22:43:26.961Z,11.13
2023-05-19T22:46:28.504Z,11.18
2023-05-19T22:49:32.567Z,11.34
2023-05-19T22:52:34.077Z,11.18
2023-05-19T22:55:37.574Z,10.95
2023-05-19T22:58:39.043Z,10.98
2023-05-19T23:01:40.598Z,11.16
2023-05-19T23:04:42.154Z,11.13
2023-05-19T23:07:43.701Z,10.92
2023-05-19T23:10:45.513Z,10.92
2023-05-19T23:13:47.071Z,10.75
2023-05-19T23:16:48.750Z,11.01
2023-05-19T23:19:50.342Z,11.09
2023-05-19T23:22:52.214Z,11.08
2023-05-19T23:25:53.697Z,10.32
2023-05-19T23:28:55.473Z,10.10
2023-05-19T23:31:57.015Z,10.11
2023-05-19T23:35:09.030Z,10.08
2023-05-19T23:38:10.999Z,10.15
2023-05-19T23:41:12.777Z,10.39
2023-05-19T23:44:14.212Z,10.61
2023-05-19T23:47:15.671Z,10.83
2023-05-19T23:50:17.262Z,10.66
2023-05-19T23:53:18.783Z,10.67
2023-05-19T23:56:21.503Z,10.56
2023-05-19T23:59:23.058Z,10.69
